Peachland, Canada
Current Conditions -  °F | °C
As of 5:00 PM on Friday 24 Oct 2014 (Local Time) from CYLW Reporting Station
Clear Clear  
Wind Chill: 50°   Ceiling: Unl
Heat Index: 50°   Visibility: 9mi
Dew Point: 41°   Wind: 5mph
Humidity: 71%   Direction: 320°NW
Pressure: 30.05"   Gusts: NA
Location:  49.77°N, 119.74°W
Report Text: CYLW 250000Z AUTO 32004KT 9SM CLR 10/05 A3005 RMK SLP186
Loading
Personal Weather Stations






























Interactive Weather Map
Tropical Storm Tracking
New forecast layout! Learn more

10-Day Weather Forecast

Advertisements
Track Severe Weather on mobile